ETOU/WIE METAR and TAF weather

Enter ICAO airport designator
Station Type Date Time Source
ETOU METAR 2018/04/26 14:56 UTC NOAA

ETOU 261456Z AUTO 28011KT 9999 SCT080 14/00 A3005 RMK AO2 SLP179 T01441001 58004 $


Station Type Date Time Source
ETOU Decoded METAR 2018/04/26 14:56 UTC NOAA

Wiesbaden, Germany (ETOU) 50-03N 008-20E
Apr 26, 2018 - 10:56 AM EDT / 2018.04.26 1456 UTC
Wind: from the W (280 degrees) at 13 MPH (11 KT):0
Visibility: greater than 7 mile(s):0
Sky conditions: partly cloudy
Temperature: 57.9 F (14.4 C)
Dew Point: 31.8 F (-0.1 C)
Relative Humidity: 36%
Pressure (altimeter): 30.05 in. Hg (1017 hPa)
Pressure tendency: 0.01 inches (0.4 hPa) lower than three hours ago
ob: ETOU 261456Z AUTO 28011KT 9999 SCT080 14/00 A3005 RMK AO2 SLP179 T01441001 58004
cycle: 15

Station Type Date Time Source
ETOU TAF 2018/04/26 11:06 UTC NOAA

TAF ETOU 261101Z 2611/2717 27015KT 9000 -SHRA OVC050 QNH3007INS
BECMG 2616/2617 26009KT 9999 NSW SCT050 QNH3008INS
BECMG 2619/2620 VRB06KT 9999 FEW040 FEW120 QNH3008INS
BECMG 2709/2710 13009KT 9999 FEW045 QNH2996INS TX15/2613Z TN05/2704Z


Example: see airport list